Terminal Aerodrome Forecast
Issued by NWS

Home | Current Version | Previous Version | Text Only | Print | Product List | Glossary On
Versions: 1 2 3 4 5 6 7 8 9 10 11 12 13 14 15 16 17 18
000
FTUS42 KTBW 241120
TAFPGD
TAF
KPGD 241120Z 2412/2512 29006KT P6SM SCT010 BKN120
      TEMPO 2412/2415 5SM -RA BR BKN010
     FM241500 36007KT P6SM BKN012
     FM241700 34008KT P6SM SCT020
     FM242300 VRB03KT P6SM SCT035
     FM251000 VRB03KT 6SM BR SCT005=

USA.gov is the U.S. government's official web portal to all federal, state and local government web resources and services.